BOS weather

General Edward Lawrence Logan International Airport
Boston, Massachusetts, United States

Public forecast

Using degrees Fahrenheit for public forecast. Weather courtesy of forecast.io.

METAR (pilot weather report)

Report is more than 2 hours old.

Retrieved 2018/10/17 03:54 UTC (2 hours ago):

KBOS 170354Z 24008KT 10SM SCT250 09/02 A3001 RMK AO2 SLP162 T00940022

TAF (pilot weather forecast)

Forecast is more than 12 hours old.

Retrieved 2018/10/16 00:27 UTC (1 day ago):

TAF KBOS 162320Z 1700/1806 26009KT P6SM SKC FM170200 24009KT P6SM SKC FM171600 24013KT P6SM SCT060 FM172000 27017G28KT P6SM BKN060 FM172300 28017G29KT P6SM SCT250